Edgemere, Massachusetts
Current Conditions -  °F | °C
As of 8:54 AM on Sunday 23 Nov 2014 (Local Time) from KORH Reporting Station
Few Clouds Few Clouds  
Wind Chill: 30°   Ceiling: Unl
Heat Index: 38°   Visibility: 10mi
Dew Point: 26°   Wind: 12mph
Humidity: 62%   Direction: 220°SW
Pressure: 30.12"   Gusts: NA
Location:  42.2859°N, 71.7148°W
Report Text: KORH 231354Z 22010KT 10SM FEW029 FEW100 03/M03 A3012 RMK AO2 SLP210 T00331033 $
Loading
Personal Weather Stations






























Interactive Weather Map New forecast layout! Learn more

10-Day Weather Forecast

Advertisements
Track Severe Weather on mobile